Time;durP1;ratioP1;P1;durP2;ratioP2;P2;SDS_P1;SDS_P2;PMS_P1;PMS_P2;Temp;Humidity;BMP_temperature;BMP_pressure;BME280_temperature;BME280_humidity;BME280_pressure;Samples;Min_cycle;Max_cycle;Signal;HPM_P1;HPM_P2
2022/10/15 00:02:19;;;;;;;2.25;2.00;;;;;;;9.59;97.89;99381.91;5073808;28;20139;-70
2022/10/15 00:04:45;;;;;;;2.80;1.90;;;;;;;9.57;98.08;99371.28;5063356;28;20047;-71
2022/10/15 00:07:10;;;;;;;2.78;2.47;;;;;;;9.60;98.08;99375.34;5051799;28;20040;-72
2022/10/15 00:09:35;;;;;;;2.50;1.95;;;;;;;9.67;97.49;99369.59;5056006;28;20021;-72
2022/10/15 00:12:01;;;;;;;3.70;3.33;;;;;;;9.70;97.32;99363.56;5079403;28;20474;-71
2022/10/15 00:14:26;;;;;;;3.65;2.95;;;;;;;9.74;97.51;99359.16;5041133;28;20040;-70
2022/10/15 00:16:52;;;;;;;4.57;3.75;;;;;;;9.79;97.54;99361.81;5036071;28;20135;-70
2022/10/15 00:19:17;;;;;;;4.55;4.05;;;;;;;9.85;97.88;99359.88;5051581;28;20036;-70
2022/10/15 00:21:43;;;;;;;4.35;3.88;;;;;;;9.87;97.95;99355.75;5056275;28;20074;-71
2022/10/15 00:24:08;;;;;;;5.40;4.43;;;;;;;9.89;98.10;99344.53;5080463;28;20380;-71
2022/10/15 00:26:34;;;;;;;4.68;4.28;;;;;;;9.91;97.98;99347.78;5056399;28;20056;-71
2022/10/15 00:29:03;;;;;;;4.25;3.83;;;;;;;9.90;97.65;99336.06;5078814;28;20029;-72
2022/10/15 00:31:30;;;;;;;6.35;4.40;;;;;;;9.93;98.74;99340.94;5061120;28;20029;-72
2022/10/15 00:33:58;;;;;;;6.93;5.35;;;;;;;9.90;98.54;99327.03;5058793;28;20068;-72
2022/10/15 00:36:41;;;;;;;6.35;5.18;;;;;;;9.92;98.78;99322.91;5058906;28;20147;-72
2022/10/15 00:39:07;;;;;;;6.75;6.03;;;;;;;9.95;99.12;99322.34;5080545;28;20046;-72
2022/10/15 00:41:39;;;;;;;6.50;5.78;;;;;;;9.96;99.02;99329.44;5059377;28;20029;-71
2022/10/15 00:44:20;;;;;;;10.70;5.85;;;;;;;10.01;99.50;99333.22;5087740;28;20060;-70
2022/10/15 00:46:49;;;;;;;5.95;4.93;;;;;;;10.02;98.96;99326.66;5075985;28;20036;-72
2022/10/15 00:49:19;;;;;;;7.22;5.10;;;;;;;10.04;99.44;99324.44;5058682;28;20059;-71
2022/10/15 00:52:01;;;;;;;5.03;4.53;;;;;;;9.99;99.85;99306.19;5070739;28;20028;-71
2022/10/15 00:54:30;;;;;;;7.78;6.25;;;;;;;10.06;99.84;99309.41;5070339;28;20040;-72
2022/10/15 00:56:56;;;;;;;7.05;6.30;;;;;;;10.06;99.79;99305.84;5060136;28;20032;-73
2022/10/15 00:59:25;;;;;;;9.32;6.40;;;;;;;10.06;99.26;99293.03;5074496;28;20081;-70
2022/10/15 01:01:51;;;;;;;6.60;5.90;;;;;;;10.00;99.79;99287.88;5050496;28;20069;-70
2022/10/15 01:04:17;;;;;;;7.75;6.75;;;;;;;9.99;100.00;99297.19;5038516;28;20055;-70
2022/10/15 01:06:44;;;;;;;7.93;6.68;;;;;;;9.95;99.80;99288.75;5050763;28;20037;-71
2022/10/15 01:09:10;;;;;;;8.23;6.95;;;;;;;9.89;100.00;99279.81;5052592;28;20041;-72
2022/10/15 01:11:41;;;;;;;8.20;6.43;;;;;;;9.87;100.00;99276.56;5047442;28;20032;-70
2022/10/15 01:14:28;;;;;;;7.35;5.95;;;;;;;9.86;99.88;99280.38;5052065;28;20356;-70
2022/10/15 01:17:31;;;;;;;7.30;6.18;;;;;;;9.88;100.00;99280.09;5049227;28;20053;-71
2022/10/15 01:20:33;;;;;;;6.13;5.53;;;;;;;9.87;100.00;99271.09;5048330;28;20063;-71
2022/10/15 01:23:14;;;;;;;5.95;5.35;;;;;;;9.86;100.00;99280.38;5054365;28;20037;-69
2022/10/15 01:25:53;;;;;;;6.25;5.10;;;;;;;9.86;100.00;99280.38;5042820;28;20778;-70
2022/10/15 01:28:27;;;;;;;5.53;4.63;;;;;;;9.86;100.00;99277.66;5053189;28;20025;-71
2022/10/15 01:31:23;;;;;;;4.63;4.22;;;;;;;9.82;100.00;99268.41;5078151;28;20028;-71
2022/10/15 01:34:13;;;;;;;4.10;3.70;;;;;;;9.72;100.00;99263.06;5085373;28;20475;-71
2022/10/15 01:36:52;;;;;;;4.88;3.95;;;;;;;9.65;99.65;99268.03;5051143;28;20502;-71
2022/10/15 01:39:30;;;;;;;5.05;4.32;;;;;;;9.54;99.86;99256.44;5052572;28;20029;-71
2022/10/15 01:42:06;;;;;;;6.68;5.43;;;;;;;9.49;100.00;99254.56;5052854;28;20028;-71
2022/10/15 01:44:46;;;;;;;7.90;5.40;;;;;;;9.58;100.00;99252.03;5054575;28;20025;-72
2022/10/15 01:47:18;;;;;;;7.03;4.47;;;;;;;9.61;100.00;99246.78;5053356;28;20048;-71
2022/10/15 01:49:45;;;;;;;5.45;4.40;;;;;;;9.67;100.00;99252.22;5056133;28;20115;-70
2022/10/15 01:52:24;;;;;;;8.95;4.47;;;;;;;9.68;100.00;99245.63;5050731;28;20029;-71
2022/10/15 01:54:52;;;;;;;6.82;4.88;;;;;;;9.69;100.00;99239.06;5069583;28;20033;-71
2022/10/15 01:57:21;;;;;;;6.15;4.63;;;;;;;9.64;100.00;99233.66;5052177;28;20037;-72
2022/10/15 01:59:49;;;;;;;6.80;4.72;;;;;;;9.69;100.00;99230.88;5060504;28;20029;-72
2022/10/15 02:02:17;;;;;;;7.28;3.95;;;;;;;9.67;100.00;99231.19;5067833;28;20119;-72
2022/10/15 02:04:46;;;;;;;5.25;4.63;;;;;;;9.66;100.00;99226.00;5045525;28;20086;-71
2022/10/15 02:07:43;;;;;;;6.63;3.30;;;;;;;9.75;100.00;99213.34;5073732;28;20041;-71
2022/10/15 02:10:27;;;;;;;4.65;3.05;;;;;;;9.92;100.00;99219.16;5054364;28;20100;-69
2022/10/15 02:13:11;;;;;;;7.30;3.17;;;;;;;9.98;100.00;99222.63;5077305;28;20078;-72
2022/10/15 02:15:48;;;;;;;5.85;3.55;;;;;;;10.01;100.00;99208.41;5053401;28;20036;-69
2022/10/15 02:18:27;;;;;;;5.30;3.08;;;;;;;10.07;100.00;99218.16;5060629;28;20112;-70
2022/10/15 02:21:02;;;;;;;3.20;2.33;;;;;;;10.12;100.00;99214.56;5086495;28;20052;-71
2022/10/15 02:23:38;;;;;;;4.90;2.40;;;;;;;10.05;100.00;99203.97;5079549;28;20019;-71
2022/10/15 02:26:07;;;;;;;3.60;2.28;;;;;;;10.02;100.00;99201.03;5056326;28;20039;-71
2022/10/15 02:28:47;;;;;;;3.92;2.15;;;;;;;9.94;100.00;99186.09;5078536;28;20032;-70
2022/10/15 02:31:14;;;;;;;6.63;2.22;;;;;;;9.99;100.00;99190.66;5064250;28;20394;-72
2022/10/15 02:33:40;;;;;;;3.13;2.03;;;;;;;9.94;100.00;99186.91;5079428;28;20024;-71
2022/10/15 02:36:07;;;;;;;3.33;2.20;;;;;;;9.92;100.00;99189.09;5050566;28;20044;-72
2022/10/15 02:38:35;;;;;;;2.83;2.03;;;;;;;9.98;100.00;99183.59;5059805;28;20044;-72
2022/10/15 02:41:01;;;;;;;3.20;1.83;;;;;;;10.11;100.00;99185.59;5082069;28;20020;-72
2022/10/15 02:43:26;;;;;;;3.00;1.48;;;;;;;10.23;100.00;99183.25;5063762;28;20032;-72
2022/10/15 02:45:52;;;;;;;4.43;1.95;;;;;;;10.37;100.00;99179.84;5051522;28;20036;-71
2022/10/15 02:48:17;;;;;;;5.18;1.83;;;;;;;10.42;100.00;99177.03;5071149;28;20028;-70
2022/10/15 02:50:43;;;;;;;3.03;1.80;;;;;;;10.41;100.00;99170.75;5077623;28;20032;-71
2022/10/15 02:53:12;;;;;;;2.47;1.40;;;;;;;10.30;100.00;99159.09;5084030;28;20040;-72
2022/10/15 02:55:38;;;;;;;2.17;1.30;;;;;;;10.23;100.00;99164.13;5074691;28;20021;-72
2022/10/15 02:58:03;;;;;;;2.67;1.10;;;;;;;10.09;100.00;99163.22;5055857;28;20104;-72
2022/10/15 03:00:29;;;;;;;1.90;1.40;;;;;;;10.05;100.00;99168.47;5048995;28;20028;-72
2022/10/15 03:02:55;;;;;;;1.40;0.98;;;;;;;10.02;100.00;99162.78;5058228;28;20034;-72
2022/10/15 03:05:20;;;;;;;4.65;1.33;;;;;;;10.06;100.00;99161.06;5056778;28;20029;-72
2022/10/15 03:07:45;;;;;;;3.13;1.25;;;;;;;10.06;100.00;99148.25;5060394;28;20044;-71
2022/10/15 03:10:11;;;;;;;3.53;1.58;;;;;;;10.11;100.00;99147.38;5099180;28;20029;-72
2022/10/15 03:12:36;;;;;;;5.63;2.00;;;;;;;10.11;100.00;99155.56;5026156;28;20024;-72
2022/10/15 03:15:02;;;;;;;2.40;1.38;;;;;;;10.07;100.00;99146.31;5061973;28;20028;-71
2022/10/15 03:17:28;;;;;;;3.42;1.38;;;;;;;10.05;100.00;99134.91;5054427;28;20037;-71
2022/10/15 03:19:53;;;;;;;2.13;1.30;;;;;;;10.02;100.00;99135.50;5053218;28;20135;-73
2022/10/15 03:22:19;;;;;;;5.53;1.63;;;;;;;10.04;100.00;99133.25;5042951;28;20072;-71
2022/10/15 03:24:45;;;;;;;2.80;1.75;;;;;;;10.03;100.00;99131.63;5053282;28;20044;-71
2022/10/15 03:27:11;;;;;;;2.97;1.55;;;;;;;10.03;100.00;99129.72;5053927;28;20021;-71
2022/10/15 03:29:36;;;;;;;3.28;2.00;;;;;;;10.06;100.00;99122.84;5054229;28;20049;-71
2022/10/15 03:32:01;;;;;;;5.70;1.95;;;;;;;10.09;100.00;99127.72;5056852;28;20116;-70
2022/10/15 03:34:27;;;;;;;5.13;1.95;;;;;;;10.09;100.00;99119.50;5060054;28;20380;-71
2022/10/15 03:36:52;;;;;;;4.50;1.63;;;;;;;10.07;100.00;99116.28;5026275;28;20033;-71
2022/10/15 03:39:18;;;;;;;6.22;2.30;;;;;;;10.01;100.00;99112.81;5064494;28;20519;-72
2022/10/15 03:41:43;;;;;;;3.53;1.70;;;;;;;10.07;100.00;99116.28;5056245;28;20079;-71
2022/10/15 03:44:09;;;;;;;5.18;2.33;;;;;;;10.17;100.00;99127.06;5055946;28;20561;-71
2022/10/15 03:46:34;;;;;;;4.45;1.80;;;;;;;10.23;100.00;99125.88;5050231;28;20041;-71
2022/10/15 03:49:01;;;;;;;4.72;1.63;;;;;;;10.28;100.00;99123.09;5037339;28;20028;-70
2022/10/15 03:51:26;;;;;;;2.40;1.40;;;;;;;10.25;100.00;99126.41;5050297;28;20033;-71
2022/10/15 03:53:52;;;;;;;7.32;2.38;;;;;;;10.26;100.00;99125.28;5053391;28;20071;-70
2022/10/15 03:56:18;;;;;;;3.65;2.17;;;;;;;10.26;100.00;99130.75;5052628;28;20021;-70
2022/10/15 03:58:43;;;;;;;4.47;2.33;;;;;;;10.23;100.00;99125.06;5056717;28;20032;-70
2022/10/15 04:01:10;;;;;;;4.43;2.35;;;;;;;10.20;100.00;99129.19;5056209;28;20053;-71
2022/10/15 04:03:37;;;;;;;3.88;2.00;;;;;;;10.16;100.00;99117.22;5033546;28;20034;-69
2022/10/15 04:06:02;;;;;;;5.05;2.45;;;;;;;10.10;100.00;99116.53;5036656;28;20049;-70
2022/10/15 04:08:28;;;;;;;2.85;1.90;;;;;;;10.05;100.00;99107.59;5030119;28;20092;-71
2022/10/15 04:10:53;;;;;;;3.50;1.83;;;;;;;10.11;100.00;99103.66;5007397;28;20048;-70
2022/10/15 04:13:19;;;;;;;4.18;2.50;;;;;;;10.22;100.00;99105.16;5037517;28;20052;-70
2022/10/15 04:15:47;;;;;;;3.83;2.45;;;;;;;10.26;100.00;99108.09;5043161;28;20040;-70
2022/10/15 04:18:13;;;;;;;6.57;2.60;;;;;;;10.34;100.00;99109.34;5036746;28;20036;-70
2022/10/15 04:20:41;;;;;;;6.32;2.85;;;;;;;10.35;100.00;99111.00;5038176;28;20037;-71
2022/10/15 04:23:07;;;;;;;3.78;2.03;;;;;;;10.39;100.00;99096.44;5035245;28;20022;-71
2022/10/15 04:25:32;;;;;;;4.68;2.38;;;;;;;10.37;100.00;99086.94;5044084;28;20036;-71
2022/10/15 04:28:46;;;;;;;4.30;1.60;;;;;;;10.53;99.99;99101.97;5038756;28;20033;-72
2022/10/15 04:31:12;;;;;;;3.40;2.00;;;;;;;10.46;99.91;99082.41;5063291;28;20040;-71
2022/10/15 04:33:37;;;;;;;3.63;1.77;;;;;;;10.54;99.78;99084.47;5037208;28;20024;-70
2022/10/15 04:36:09;;;;;;;4.63;1.98;;;;;;;10.49;99.81;99084.53;5052037;28;20052;-71
2022/10/15 04:38:34;;;;;;;3.75;2.17;;;;;;;10.57;99.87;99097.53;5047462;28;20036;-71
2022/10/15 04:41:05;;;;;;;4.32;1.88;;;;;;;10.59;99.46;99092.56;5045001;28;20023;-70
2022/10/15 04:43:32;;;;;;;2.95;1.77;;;;;;;10.60;99.81;99091.47;5033118;28;20029;-71
2022/10/15 04:45:58;;;;;;;2.28;1.50;;;;;;;10.63;99.43;99088.13;5039217;28;20041;-71
2022/10/15 04:48:26;;;;;;;2.17;1.50;;;;;;;10.65;99.60;99091.38;5043251;28;20033;-70
2022/10/15 04:50:52;;;;;;;2.78;1.60;;;;;;;10.72;99.01;99098.38;5035095;28;20120;-71
2022/10/15 04:53:19;;;;;;;3.45;1.73;;;;;;;10.73;99.12;99094.53;5040455;28;20044;-71
2022/10/15 04:55:45;;;;;;;1.95;1.30;;;;;;;10.79;99.01;99094.16;5035674;28;20036;-70
2022/10/15 04:58:11;;;;;;;2.03;1.60;;;;;;;10.85;98.54;99103.09;5037627;28;20033;-71
2022/10/15 05:00:38;;;;;;;2.63;1.63;;;;;;;10.84;98.67;99095.97;5032749;28;20038;-71
2022/10/15 05:03:09;;;;;;;3.00;1.58;;;;;;;10.75;98.75;99087.66;5067992;28;20020;-70
2022/10/15 05:05:35;;;;;;;2.35;1.23;;;;;;;10.80;99.12;99089.47;5054487;28;20021;-71
2022/10/15 05:08:04;;;;;;;2.75;1.48;;;;;;;10.89;98.47;99086.88;5067921;28;20386;-70
2022/10/15 05:10:31;;;;;;;2.22;1.42;;;;;;;10.97;98.19;99100.66;5051822;28;21066;-71
2022/10/15 05:12:56;;;;;;;5.20;1.48;;;;;;;11.03;97.76;99114.28;5057152;28;20032;-71
2022/10/15 05:15:25;;;;;;;3.08;1.80;;;;;;;11.04;98.10;99115.88;5062015;28;20012;-72
2022/10/15 05:17:50;;;;;;;3.40;1.88;;;;;;;11.04;97.76;99107.66;5077307;28;20032;-71
2022/10/15 05:20:16;;;;;;;4.15;1.83;;;;;;;11.05;98.04;99106.56;5075392;28;20028;-71
2022/10/15 05:22:53;;;;;;;2.00;1.30;;;;;;;10.93;98.16;99085.97;5040901;28;20047;-71
2022/10/15 05:25:19;;;;;;;2.17;1.20;;;;;;;10.98;97.23;99098.72;5059714;28;20032;-72
2022/10/15 05:27:44;;;;;;;1.63;1.30;;;;;;;11.00;97.43;99102.78;5058210;28;20062;-73
2022/10/15 05:30:10;;;;;;;4.03;1.60;;;;;;;10.87;98.00;99100.84;5037533;28;20045;-71
2022/10/15 05:32:35;;;;;;;9.13;1.88;;;;;;;10.76;98.58;99102.13;5069652;28;20017;-71
2022/10/15 05:35:04;;;;;;;9.48;1.63;;;;;;;10.68;98.94;99094.63;5067755;28;20023;-71
2022/10/15 05:38:04;;;;;;;2.45;1.27;;;;;;;10.54;99.39;99094.56;5064736;28;20055;-71
2022/10/15 05:40:29;;;;;;;9.50;2.25;;;;;;;10.52;100.00;99092.13;5044678;28;20047;-71
2022/10/15 05:42:55;;;;;;;6.18;1.83;;;;;;;10.39;100.00;99095.63;5072789;28;20021;-71
2022/10/15 05:45:23;;;;;;;4.38;1.65;;;;;;;10.34;100.00;99096.53;5064044;28;20032;-71
2022/10/15 05:47:54;;;;;;;2.78;1.55;;;;;;;10.21;100.00;99091.78;5036074;28;20025;-70
2022/10/15 05:50:42;;;;;;;5.88;2.35;;;;;;;10.14;100.00;99097.59;5062162;28;20051;-71
2022/10/15 05:53:08;;;;;;;3.53;1.48;;;;;;;10.08;100.00;99091.41;5069170;28;20028;-70
2022/10/15 05:55:33;;;;;;;9.05;1.92;;;;;;;10.10;100.00;99099.31;5052309;28;20356;-70
2022/10/15 05:58:03;;;;;;;4.75;1.60;;;;;;;10.08;100.00;99096.88;5055416;28;20012;-69
2022/10/15 06:00:38;;;;;;;4.85;1.33;;;;;;;9.94;100.00;99080.41;5081519;28;20025;-70
2022/10/15 06:03:03;;;;;;;7.22;2.13;;;;;;;9.98;100.00;99096.22;5063673;28;20059;-69
2022/10/15 06:05:30;;;;;;;3.05;1.30;;;;;;;10.00;100.00;99096.72;5073380;28;20454;-71
2022/10/15 06:07:56;;;;;;;4.00;1.42;;;;;;;9.91;100.00;99089.16;5055466;28;20128;-71
2022/10/15 06:10:22;;;;;;;9.15;1.52;;;;;;;9.96;100.00;99094.56;5073960;28;20028;-71
2022/10/15 06:12:51;;;;;;;3.97;1.58;;;;;;;9.98;100.00;99097.00;5057634;28;20039;-71
2022/10/15 06:15:19;;;;;;;4.25;1.20;;;;;;;9.92;100.00;99096.25;5061537;28;20289;-71
2022/10/15 06:17:44;;;;;;;5.25;1.67;;;;;;;10.00;100.00;99096.72;5057569;28;20049;-71
2022/10/15 06:20:11;;;;;;;6.97;1.75;;;;;;;10.05;100.00;99104.84;5075495;28;20056;-70
2022/10/15 06:22:36;;;;;;;5.80;1.45;;;;;;;10.09;100.00;99103.97;5085250;28;20493;-70
2022/10/15 06:25:03;;;;;;;4.85;1.55;;;;;;;10.10;100.00;99093.84;5057847;28;20090;-71
2022/10/15 06:27:29;;;;;;;4.75;1.77;;;;;;;10.02;100.00;99083.59;5063769;28;20040;-70
2022/10/15 06:30:02;;;;;;;5.95;1.80;;;;;;;10.03;100.00;99077.00;5066219;28;20669;-70
2022/10/15 06:32:27;;;;;;;9.80;1.98;;;;;;;9.98;100.00;99079.81;5067821;28;20043;-71
2022/10/15 06:35:02;;;;;;;6.28;1.55;;;;;;;10.03;100.00;99087.94;5068833;28;20021;-71
2022/10/15 06:37:28;;;;;;;5.88;1.58;;;;;;;10.04;100.00;99100.50;5060506;28;20058;-69
2022/10/15 06:39:54;;;;;;;5.20;1.40;;;;;;;10.04;100.00;99105.94;5084141;28;20083;-69
2022/10/15 06:42:20;;;;;;;6.90;1.20;;;;;;;10.02;100.00;99100.78;5053732;28;20039;-70
2022/10/15 06:44:45;;;;;;;4.85;1.45;;;;;;;10.04;100.00;99097.75;5061070;28;20029;-69
2022/10/15 06:47:10;;;;;;;5.60;1.63;;;;;;;9.99;100.00;99097.81;5029522;28;20585;-70
2022/10/15 06:49:36;;;;;;;4.05;1.10;;;;;;;9.99;100.00;99103.28;5041349;28;20044;-72
2022/10/15 06:52:04;;;;;;;2.50;1.15;;;;;;;9.90;100.00;99098.50;5073776;28;20084;-71
2022/10/15 06:54:30;;;;;;;1.20;1.10;;;;;;;9.96;100.00;99104.69;5056850;28;20035;-70
2022/10/15 06:56:55;;;;;;;4.60;1.30;;;;;;;9.95;100.00;99106.59;5074467;28;20028;-70
2022/10/15 06:59:21;;;;;;;3.60;0.98;;;;;;;9.93;100.00;99111.56;5054762;28;20047;-70
2022/10/15 07:01:46;;;;;;;1.67;0.95;;;;;;;9.95;100.00;99103.88;5047342;28;20056;-69
2022/10/15 07:04:12;;;;;;;5.00;0.88;;;;;;;9.95;100.00;99106.59;5066220;28;20037;-70
2022/10/15 07:06:38;;;;;;;1.13;0.60;;;;;;;9.99;100.00;99112.31;5053190;28;20033;-70
2022/10/15 07:09:04;;;;;;;2.25;0.88;;;;;;;9.99;100.00;99108.75;5078535;28;20099;-69
2022/10/15 07:11:30;;;;;;;2.30;0.80;;;;;;;10.07;100.00;99110.81;5070019;28;20079;-72
2022/10/15 07:13:56;;;;;;;4.63;0.82;;;;;;;10.13;100.00;99117.81;5071452;28;20037;-71
2022/10/15 07:16:43;;;;;;;4.00;0.90;;;;;;;10.18;100.00;99112.31;5041371;28;20110;-70
2022/10/15 07:19:09;;;;;;;1.65;0.70;;;;;;;10.24;100.00;99110.31;5055913;28;20054;-71
2022/10/15 07:21:34;;;;;;;2.92;1.00;;;;;;;10.36;100.00;99120.81;5064569;28;20020;-70
2022/10/15 07:24:00;;;;;;;5.10;1.00;;;;;;;10.36;100.00;99102.50;5081568;28;20109;-70
2022/10/15 07:26:28;;;;;;;2.92;0.63;;;;;;;10.58;100.00;99126.47;5067213;28;20020;-72
2022/10/15 07:28:54;;;;;;;5.45;1.00;;;;;;;10.65;100.00;99121.44;5061590;28;20097;-71
2022/10/15 07:31:19;;;;;;;4.05;0.80;;;;;;;10.75;100.00;99125.94;5039009;28;20193;-73
2022/10/15 07:33:45;;;;;;;3.58;0.50;;;;;;;10.77;100.00;99122.91;5057530;28;20039;-70
2022/10/15 07:36:11;;;;;;;3.40;0.60;;;;;;;10.90;100.00;99133.06;5078755;28;20066;-71
2022/10/15 07:38:39;;;;;;;4.15;1.00;;;;;;;10.97;100.00;99130.75;5076312;28;20074;-68
2022/10/15 07:41:04;;;;;;;8.30;1.20;;;;;;;11.00;100.00;99138.34;5070512;28;20090;-71
2022/10/15 07:43:30;;;;;;;4.32;0.65;;;;;;;10.99;100.00;99142.22;5048947;28;20033;-71
2022/10/15 07:45:56;;;;;;;1.67;0.40;;;;;;;11.05;100.00;99142.13;5055834;28;20040;-69
2022/10/15 07:48:24;;;;;;;3.22;0.57;;;;;;;12.32;100.00;99143.44;5065449;28;20029;-71
2022/10/15 07:50:54;;;;;;;4.15;0.82;;;;;;;14.70;87.42;99155.16;5056535;28;20037;-70
2022/10/15 07:53:20;;;;;;;1.13;0.52;;;;;;;16.90;74.60;99159.31;5066576;28;20634;-71
2022/10/15 07:55:45;;;;;;;2.20;0.85;;;;;;;18.33;65.25;99166.41;5079359;28;20035;-70
2022/10/15 07:58:11;;;;;;;3.08;0.75;;;;;;;18.90;59.96;99168.09;5069455;28;20028;-70
2022/10/15 08:00:36;;;;;;;0.95;0.50;;;;;;;17.72;61.99;99165.25;5075117;28;20025;-71
2022/10/15 08:03:02;;;;;;;2.47;0.70;;;;;;;17.52;63.82;99170.56;5072565;28;20041;-71
2022/10/15 08:05:27;;;;;;;4.85;0.73;;;;;;;18.65;60.23;99159.06;5037714;28;20489;-70
2022/10/15 08:07:52;;;;;;;5.45;1.00;;;;;;;19.46;56.83;99171.97;5065015;28;20036;-70
2022/10/15 08:10:18;;;;;;;1.88;0.88;;;;;;;20.28;53.57;99180.69;5045095;28;20404;-70
2022/10/15 08:12:43;;;;;;;5.68;1.13;;;;;;;21.17;51.59;99172.66;5072586;28;20087;-70
2022/10/15 08:15:09;;;;;;;3.78;1.10;;;;;;;20.77;51.25;99173.88;5069622;28;20040;-70
2022/10/15 08:17:35;;;;;;;5.88;1.67;;;;;;;18.71;55.12;99170.69;5071289;28;20047;-70
2022/10/15 08:20:00;;;;;;;3.20;1.27;;;;;;;17.50;59.48;99175.59;5053039;28;20054;-71
2022/10/15 08:22:26;;;;;;;3.92;1.50;;;;;;;16.23;63.35;99170.19;5061037;28;20024;-70
2022/10/15 08:24:51;;;;;;;4.13;1.48;;;;;;;16.77;63.81;99165.09;5073459;28;20038;-69
2022/10/15 08:27:17;;;;;;;4.10;1.30;;;;;;;18.97;57.13;99154.44;5061114;28;20512;-70
2022/10/15 08:29:42;;;;;;;5.05;1.20;;;;;;;21.16;51.40;99165.47;5054822;28;20066;-70
2022/10/15 08:32:08;;;;;;;3.20;1.00;;;;;;;20.62;50.49;99158.81;5078081;28;20032;-70
2022/10/15 08:34:33;;;;;;;3.55;0.50;;;;;;;18.73;54.57;99171.13;5058454;28;20028;-70
2022/10/15 08:36:59;;;;;;;2.63;0.70;;;;;;;17.19;59.29;99173.34;5072738;28;20037;-70
2022/10/15 08:39:24;;;;;;;6.68;0.73;;;;;;;16.12;63.20;99174.50;5053898;28;20035;-71
2022/10/15 08:41:56;;;;;;;5.30;0.82;;;;;;;15.56;66.20;99169.06;5053618;28;21107;-70
2022/10/15 08:44:27;;;;;;;1.60;0.50;;;;;;;15.21;67.87;99169.16;5069570;28;20017;-70
2022/10/15 08:47:18;;;;;;;4.10;0.70;;;;;;;14.88;69.79;99155.13;5056241;28;20040;-70
2022/10/15 08:49:50;;;;;;;3.55;0.70;;;;;;;14.84;72.30;99143.97;5059370;28;20029;-70
2022/10/15 08:52:47;;;;;;;2.72;0.30;;;;;;;18.25;61.45;99163.44;5076718;28;20074;-69
2022/10/15 08:55:17;;;;;;;4.32;0.50;;;;;;;17.44;60.76;99160.38;5048049;28;20048;-71
2022/10/15 08:58:06;;;;;;;7.00;0.70;;;;;;;16.60;63.34;99166.06;5070813;28;20107;-70
2022/10/15 09:00:57;;;;;;;4.32;0.65;;;;;;;19.21;57.33;99163.78;5054870;28;20022;-70
2022/10/15 09:03:27;;;;;;;1.98;0.40;;;;;;;18.72;57.34;99172.28;5068894;28;20123;-70
2022/10/15 09:06:14;;;;;;;3.83;1.45;;;;;;;17.87;59.81;99172.06;5054147;28;20028;-70
2022/10/15 09:09:11;;;;;;;5.78;0.50;;;;;;;19.94;56.39;99175.56;5068370;28;20091;-71
2022/10/15 09:11:47;;;;;;;3.35;0.57;;;;;;;22.87;47.62;99181.69;5077779;28;20103;-71
2022/10/15 09:14:17;;;;;;;2.58;0.60;;;;;;;22.06;47.07;99170.63;5056858;28;20043;-71
2022/10/15 09:16:47;;;;;;;7.35;0.90;;;;;;;20.23;51.10;99179.03;5059642;28;20051;-70
2022/10/15 09:19:17;;;;;;;2.65;0.70;;;;;;;18.72;55.81;99183.38;5071968;28;20039;-70
2022/10/15 09:21:44;;;;;;;3.92;0.77;;;;;;;17.77;59.77;99178.84;5076372;28;20107;-70
2022/10/15 09:24:12;;;;;;;5.18;0.73;;;;;;;17.38;61.73;99179.16;5079169;28;20052;-69
2022/10/15 09:27:18;;;;;;;2.42;0.50;;;;;;;17.39;61.90;99182.69;5056187;28;20029;-70
2022/10/15 09:29:57;;;;;;;3.80;0.65;;;;;;;17.07;63.58;99182.41;5073683;28;20029;-70
2022/10/15 09:32:32;;;;;;;6.28;0.93;;;;;;;16.67;64.69;99177.34;5059965;28;20445;-70
2022/10/15 09:35:23;;;;;;;4.43;0.95;;;;;;;16.20;66.77;99181.09;5054174;28;20043;-71
2022/10/15 09:37:51;;;;;;;7.85;0.75;;;;;;;15.66;68.27;99174.19;5078659;28;20115;-69
2022/10/15 09:40:45;;;;;;;1.25;0.60;;;;;;;15.32;69.41;99175.16;5073250;28;20066;-69
2022/10/15 09:43:12;;;;;;;5.95;0.63;;;;;;;15.25;68.69;99172.09;5072710;28;20059;-69
2022/10/15 09:45:38;;;;;;;2.60;0.57;;;;;;;15.60;66.27;99172.78;5077794;28;20041;-70
2022/10/15 09:48:14;;;;;;;4.28;0.40;;;;;;;15.86;63.65;99182.91;5056940;28;20040;-70
2022/10/15 09:50:45;;;;;;;10.82;0.73;;;;;;;17.52;61.66;99166.97;5067198;28;20043;-71
2022/10/15 09:53:28;;;;;;;3.63;0.55;;;;;;;21.81;50.45;99183.34;5075721;28;20053;-70
2022/10/15 09:56:08;;;;;;;3.05;0.60;;;;;;;25.40;38.74;99182.41;5059657;28;20036;-70
2022/10/15 09:58:53;;;;;;;1.65;0.32;;;;;;;27.71;35.26;99184.63;5074918;28;20033;-70
2022/10/15 10:01:30;;;;;;;0.98;0.50;;;;;;;29.50;32.26;99181.06;5046243;28;20041;-71
2022/10/15 10:04:13;;;;;;;1.50;0.40;;;;;;;29.50;30.83;99186.69;5073893;28;20033;-69
2022/10/15 10:06:48;;;;;;;1.80;0.45;;;;;;;30.89;29.81;99188.28;5076031;28;20032;-71
2022/10/15 10:09:32;;;;;;;1.10;0.43;;;;;;;31.50;28.52;99186.94;5075065;28;20040;-70
2022/10/15 10:12:00;;;;;;;1.55;0.50;;;;;;;32.06;27.83;99181.59;5053896;28;20024;-71
2022/10/15 10:14:39;;;;;;;3.70;0.40;;;;;;;32.02;27.45;99176.84;5056072;28;20047;-70
2022/10/15 10:17:17;;;;;;;1.15;0.43;;;;;;;32.68;27.70;99187.22;5072626;28;20032;-69
2022/10/15 10:19:44;;;;;;;2.80;0.80;;;;;;;33.52;25.46;99187.16;5082774;28;20074;-70
2022/10/15 10:22:19;;;;;;;3.00;0.50;;;;;;;33.50;24.89;99177.53;5055023;28;20028;-70
2022/10/15 10:24:46;;;;;;;2.10;0.50;;;;;;;33.10;25.71;99178.72;5068341;28;20116;-69
2022/10/15 10:27:43;;;;;;;2.58;0.63;;;;;;;32.44;25.76;99184.63;5050700;28;20020;-70
2022/10/15 10:30:12;;;;;;;5.63;0.93;;;;;;;29.63;26.78;99184.88;5058098;28;20478;-70
2022/10/15 10:32:38;;;;;;;2.90;0.70;;;;;;;25.69;33.72;99174.03;5081393;28;20028;-69
2022/10/15 10:35:04;;;;;;;2.13;0.60;;;;;;;25.46;35.23;99189.19;5058043;28;20115;-71
2022/10/15 10:37:41;;;;;;;1.90;0.30;;;;;;;25.78;35.05;99180.03;5043556;28;20036;-71
2022/10/15 10:40:29;;;;;;;4.60;0.90;;;;;;;24.59;36.52;99176.91;5057101;28;20378;-71
2022/10/15 10:43:16;;;;;;;1.15;0.60;;;;;;;24.39;38.01;99179.16;5068870;28;20036;-70
2022/10/15 10:45:56;;;;;;;3.67;0.73;;;;;;;23.30;40.60;99176.66;5073541;28;20663;-71
2022/10/15 10:48:25;;;;;;;4.03;0.60;;;;;;;22.46;43.51;99177.63;5057356;28;20024;-71
2022/10/15 10:51:06;;;;;;;4.45;0.90;;;;;;;22.31;43.36;99189.69;5078128;28;20020;-70
2022/10/15 10:53:36;;;;;;;3.90;0.95;;;;;;;22.83;42.80;99181.66;5077303;28;20528;-69
2022/10/15 10:56:03;;;;;;;4.75;1.08;;;;;;;24.13;40.16;99177.41;5079691;28;20028;-70
2022/10/15 10:58:32;;;;;;;5.78;1.02;;;;;;;27.74;34.12;99183.78;5071163;28;20060;-69
2022/10/15 11:00:58;;;;;;;7.85;0.60;;;;;;;32.32;27.54;99177.69;5053221;28;20358;-70
2022/10/15 11:03:34;;;;;;;3.60;0.70;;;;;;;32.67;25.26;99185.66;5045172;28;20025;-69
2022/10/15 11:06:16;;;;;;;5.03;0.63;;;;;;;28.13;30.73;99183.47;5067999;28;20086;-72
2022/10/15 11:09:11;;;;;;;1.88;0.57;;;;;;;24.79;36.46;99174.59;5074516;28;20092;-70
2022/10/15 11:11:43;;;;;;;4.43;1.02;;;;;;;22.95;40.57;99197.34;5059419;28;20105;-70
2022/10/15 11:14:23;;;;;;;1.38;0.45;;;;;;;21.42;45.10;99193.41;5058968;28;20028;-70
2022/10/15 11:17:10;;;;;;;4.03;0.80;;;;;;;19.80;47.44;99208.50;5062471;28;20028;-70
2022/10/15 11:19:46;;;;;;;4.65;0.93;;;;;;;18.55;50.32;99193.56;5067350;28;20450;-70
2022/10/15 11:22:24;;;;;;;2.80;0.50;;;;;;;17.07;56.93;99198.97;5080819;28;20046;-70
2022/10/15 11:25:10;;;;;;;3.47;0.70;;;;;;;15.90;64.21;99183.06;5056379;28;20054;-69
2022/10/15 11:28:19;;;;;;;4.03;0.60;;;;;;;15.48;66.62;99187.25;5079206;28;20032;-71
2022/10/15 11:30:49;;;;;;;5.38;0.60;;;;;;;15.77;64.93;99169.16;5024694;28;20041;-69
2022/10/15 11:33:35;;;;;;;3.30;0.85;;;;;;;16.95;62.11;99171.31;5062448;28;20029;-71
2022/10/15 11:36:20;;;;;;;4.97;1.02;;;;;;;20.20;54.42;99182.53;5055210;28;20088;-72
2022/10/15 11:39:23;;;;;;;5.68;0.80;;;;;;;23.39;43.08;99182.72;5073479;28;20466;-70
2022/10/15 11:42:05;;;;;;;4.28;0.90;;;;;;;23.96;40.72;99179.69;5088761;28;20378;-71
2022/10/15 11:44:51;;;;;;;5.10;0.80;;;;;;;22.20;44.23;99183.97;5061326;28;20124;-70
2022/10/15 11:47:25;;;;;;;11.68;1.33;;;;;;;22.41;44.20;99177.13;5065392;28;20025;-71
2022/10/15 11:49:50;;;;;;;;;;;;;;;23.15;42.99;99176.50;5077308;28;20028;-70
2022/10/15 11:52:28;;;;;;;3.30;0.83;;;;;;;23.13;41.82;99172.47;5058955;28;19916;-70